createdAt,value
2022-11-07T00:00:56.304Z,63.69
2022-11-07T00:01:59.331Z,63.75
2022-11-07T00:03:01.305Z,63.36
2022-11-07T00:04:04.349Z,64.14
2022-11-07T00:05:08.339Z,63.13
2022-11-07T00:06:10.530Z,63.33
2022-11-07T00:07:13.615Z,63.73
2022-11-07T00:08:16.486Z,63.28
2022-11-07T00:09:18.381Z,63.31
2022-11-07T00:10:21.267Z,64.34
2022-11-07T00:11:23.186Z,63.25
2022-11-07T00:12:26.242Z,64.47
2022-11-07T00:13:28.855Z,63.67
2022-11-07T00:14:33.411Z,63.34
2022-11-07T00:15:35.748Z,63.12
2022-11-07T00:16:38.666Z,62.95
2022-11-07T00:17:41.629Z,62.69
2022-11-07T00:18:43.477Z,62.17
2022-11-07T00:19:46.333Z,62.85
2022-11-07T00:20:48.290Z,62.63
2022-11-07T00:21:51.905Z,63.29
2022-11-07T00:22:54.853Z,62.00
2022-11-07T00:23:56.759Z,62.67
2022-11-07T00:24:59.578Z,62.40
2022-11-07T00:26:02.113Z,62.60
2022-11-07T00:27:05.329Z,62.64
2022-11-07T00:28:07.325Z,61.73
2022-11-07T00:29:14.351Z,62.14
2022-11-07T00:30:18.830Z,62.81
2022-11-07T00:31:20.795Z,61.86
2022-11-07T00:32:23.771Z,62.16
2022-11-07T00:33:25.843Z,62.20
2022-11-07T00:34:28.652Z,62.28
2022-11-07T00:35:30.466Z,62.00
2022-11-07T00:36:33.457Z,62.69
2022-11-07T00:37:35.332Z,63.04
2022-11-07T00:38:38.404Z,62.62
2022-11-07T00:39:41.264Z,62.27
2022-11-07T00:40:43.155Z,62.31
2022-11-07T00:41:48.356Z,62.47
2022-11-07T00:42:50.182Z,62.71
2022-11-07T00:43:53.292Z,62.91
2022-11-07T00:44:55.116Z,62.81
2022-11-07T00:46:02.390Z,62.94
2022-11-07T00:47:05.321Z,61.99
2022-11-07T00:48:07.186Z,62.70
2022-11-07T00:49:10.055Z,61.98
2022-11-07T00:50:11.902Z,62.30
2022-11-07T00:51:16.743Z,61.50
2022-11-07T00:52:18.692Z,61.86
2022-11-07T00:53:21.743Z,62.44
2022-11-07T00:54:23.885Z,62.67
2022-11-07T00:55:26.708Z,62.85
2022-11-07T00:56:29.604Z,62.32
2022-11-07T00:57:31.505Z,62.90
2022-11-07T00:58:35.342Z,62.73
2022-11-07T00:59:37.428Z,63.52
2022-11-07T01:00:40.279Z,63.54
2022-11-07T01:01:44.908Z,62.93
2022-11-07T01:03:07.208Z,63.45
2022-11-07T01:04:30.410Z,63.58
2022-11-07T01:05:32.344Z,63.16
2022-11-07T01:06:37.312Z,62.99
2022-11-07T01:07:39.656Z,63.13
2022-11-07T01:08:42.506Z,63.47
2022-11-07T01:09:44.352Z,63.91
2022-11-07T01:10:47.161Z,63.81
2022-11-07T01:11:50.963Z,64.01
2022-11-07T01:12:52.892Z,63.23
2022-11-07T01:13:57.096Z,64.06
2022-11-07T01:15:00.112Z,64.90
2022-11-07T01:16:02.669Z,64.72
2022-11-07T01:17:07.011Z,66.20
2022-11-07T01:18:09.085Z,65.97
2022-11-07T01:19:12.793Z,66.17
2022-11-07T01:20:14.654Z,66.34
2022-11-07T01:21:17.472Z,67.64
2022-11-07T01:22:20.332Z,67.31
2022-11-07T01:23:22.813Z,66.83
2022-11-07T01:24:25.764Z,66.70
2022-11-07T01:25:27.597Z,67.22
2022-11-07T01:26:30.851Z,67.08
2022-11-07T01:27:32.853Z,67.91
2022-11-07T01:28:36.636Z,68.51
2022-11-07T01:29:38.480Z,67.81
2022-11-07T01:30:42.629Z,68.83
2022-11-07T01:31:45.584Z,67.71
2022-11-07T01:32:48.910Z,68.29
2022-11-07T01:33:52.003Z,68.68
2022-11-07T01:34:53.963Z,68.91
2022-11-07T01:36:05.704Z,69.23
2022-11-07T01:37:09.029Z,69.05
2022-11-07T01:38:10.877Z,69.46
2022-11-07T01:39:13.734Z,69.49
2022-11-07T01:40:15.641Z,68.43
2022-11-07T01:41:24.282Z,68.65
2022-11-07T01:42:26.663Z,68.43
2022-11-07T01:43:47.240Z,68.36
2022-11-07T01:44:52.728Z,69.19
2022-11-07T01:45:55.578Z,69.47
2022-11-07T01:47:00.717Z,68.56
2022-11-07T01:48:05.146Z,68.77
2022-11-07T01:49:11.950Z,68.28
2022-11-07T01:50:15.000Z,69.02
2022-11-07T01:51:18.367Z,68.21
2022-11-07T01:52:24.174Z,68.47
2022-11-07T01:53:26.418Z,69.02
2022-11-07T01:54:34.975Z,68.14
2022-11-07T01:55:37.434Z,68.36
2022-11-07T01:56:42.824Z,68.53
2022-11-07T01:57:50.134Z,68.77
2022-11-07T01:58:54.166Z,68.56
2022-11-07T01:59:59.808Z,68.81
2022-11-07T02:01:02.854Z,68.61
2022-11-07T02:02:05.382Z,69.38
2022-11-07T02:03:13.071Z,68.66
2022-11-07T02:04:18.207Z,69.40
2022-11-07T02:05:24.972Z,68.46
2022-11-07T02:06:36.223Z,69.65
2022-11-07T02:07:39.385Z,69.55
2022-11-07T02:08:45.627Z,69.92
2022-11-07T02:09:48.902Z,69.89
2022-11-07T02:10:53.257Z,69.52
2022-11-07T02:12:00.789Z,70.03
2022-11-07T02:13:03.902Z,69.87
2022-11-07T02:14:06.337Z,70.44
2022-11-07T02:15:10.869Z,71.00
2022-11-07T02:16:12.846Z,70.19
2022-11-07T02:17:16.716Z,70.60
2022-11-07T02:18:20.734Z,70.53
2022-11-07T02:19:31.615Z,70.65
2022-11-07T02:20:33.506Z,71.98
2022-11-07T02:21:45.613Z,71.29
2022-11-07T02:22:54.030Z,71.06
2022-11-07T02:24:03.646Z,71.25
2022-11-07T02:25:09.235Z,71.81
2022-11-07T02:26:12.617Z,71.30
2022-11-07T02:27:17.685Z,72.24
2022-11-07T02:28:24.796Z,71.73
2022-11-07T02:29:27.609Z,71.73
2022-11-07T02:30:34.427Z,71.67
2022-11-07T02:31:36.404Z,71.73
2022-11-07T02:32:39.481Z,71.90
2022-11-07T02:33:41.888Z,71.22
2022-11-07T02:34:44.752Z,72.08
2022-11-07T02:35:48.638Z,71.82
2022-11-07T02:36:51.498Z,71.86
2022-11-07T02:37:54.638Z,71.58
2022-11-07T02:39:00.389Z,72.15
2022-11-07T02:40:07.922Z,72.50
2022-11-07T02:41:13.986Z,71.96
2022-11-07T02:42:16.384Z,71.56
2022-11-07T02:43:21.785Z,71.24
2022-11-07T02:44:24.937Z,71.55
2022-11-07T02:45:29.557Z,71.80
2022-11-07T02:46:33.612Z,71.28
2022-11-07T02:47:35.400Z,71.75
2022-11-07T02:48:43.862Z,71.96
2022-11-07T02:49:46.709Z,71.71
2022-11-07T02:50:48.574Z,71.90
2022-11-07T02:51:51.377Z,72.06
2022-11-07T02:52:53.441Z,72.16
2022-11-07T02:53:56.520Z,72.14
2022-11-07T02:54:58.638Z,71.80
2022-11-07T02:56:02.930Z,72.23
2022-11-07T02:57:05.172Z,71.44
2022-11-07T02:58:08.035Z,71.52
2022-11-07T02:59:09.945Z,72.37
2022-11-07T03:00:15.858Z,71.48
2022-11-07T03:01:17.709Z,71.73
2022-11-07T03:02:20.698Z,71.95
2022-11-07T03:03:22.923Z,72.32
2022-11-07T03:04:25.822Z,72.30
2022-11-07T03:05:27.872Z,71.05
2022-11-07T03:06:30.705Z,72.03
2022-11-07T03:07:32.515Z,72.30
2022-11-07T03:08:36.105Z,72.10
2022-11-07T03:09:38.181Z,72.25
2022-11-07T03:10:41.005Z,71.71
2022-11-07T03:11:44.415Z,71.73
2022-11-07T03:12:47.499Z,72.06
2022-11-07T03:13:51.414Z,71.83
2022-11-07T03:14:53.310Z,71.26
2022-11-07T03:15:57.076Z,71.20
2022-11-07T03:16:58.930Z,71.09
2022-11-07T03:18:01.870Z,72.28
2022-11-07T03:19:03.916Z,71.80
2022-11-07T03:20:08.201Z,71.46
2022-11-07T03:21:10.412Z,71.73
2022-11-07T03:22:13.269Z,72.13
2022-11-07T03:23:16.845Z,71.12
2022-11-07T03:24:19.061Z,71.82
2022-11-07T03:25:21.880Z,71.34
2022-11-07T03:26:24.957Z,71.40
2022-11-07T03:27:29.108Z,71.32
2022-11-07T03:28:30.931Z,71.37
2022-11-07T03:29:33.780Z,71.32
2022-11-07T03:30:35.901Z,71.67
2022-11-07T03:31:38.751Z,71.23
2022-11-07T03:32:40.536Z,71.04
2022-11-07T03:33:43.446Z,72.01
2022-11-07T03:34:45.280Z,72.33
2022-11-07T03:35:48.040Z,71.74
2022-11-07T03:36:49.906Z,71.41
2022-11-07T03:37:52.879Z,70.97
2022-11-07T03:38:54.791Z,71.64
2022-11-07T03:39:57.716Z,71.44
2022-11-07T03:40:59.517Z,71.57
2022-11-07T03:42:02.485Z,71.12
2022-11-07T03:43:05.587Z,71.95
2022-11-07T03:44:08.692Z,71.62
2022-11-07T03:45:11.934Z,72.17
2022-11-07T03:46:15.856Z,71.12
2022-11-07T03:47:17.698Z,71.98
2022-11-07T03:48:20.451Z,72.06
2022-11-07T03:49:22.407Z,71.22
2022-11-07T03:50:25.237Z,71.72
2022-11-07T03:51:27.117Z,71.58
2022-11-07T03:52:29.899Z,72.17
2022-11-07T03:53:32.704Z,71.83
2022-11-07T03:54:34.654Z,72.13
2022-11-07T03:55:37.434Z,71.32
2022-11-07T03:56:39.774Z,71.32
2022-11-07T03:57:42.644Z,71.32
2022-11-07T03:58:46.093Z,71.18
2022-11-07T03:59:48.855Z,71.83
2022-11-07T04:00:50.704Z,71.57
2022-11-07T04:01:53.925Z,71.35
2022-11-07T04:02:55.966Z,71.14
2022-11-07T04:03:58.807Z,72.06
2022-11-07T04:05:00.745Z,72.03
2022-11-07T04:06:03.623Z,72.41
2022-11-07T04:07:05.567Z,72.24
2022-11-07T04:08:08.429Z,71.66
2022-11-07T04:09:10.312Z,72.21
2022-11-07T04:10:13.297Z,72.31
2022-11-07T04:11:48.149Z,71.71
2022-11-07T04:13:08.380Z,71.19
2022-11-07T04:14:30.471Z,71.38
2022-11-07T04:15:50.803Z,72.26
2022-11-07T04:17:11.181Z,71.50
2022-11-07T04:18:13.934Z,72.16
2022-11-07T04:19:15.740Z,71.90
2022-11-07T04:20:18.596Z,71.64
2022-11-07T04:21:20.596Z,72.17
2022-11-07T04:22:24.345Z,72.27
2022-11-07T04:23:26.675Z,72.06
2022-11-07T04:24:29.450Z,71.84
2022-11-07T04:25:49.973Z,71.37
2022-11-07T04:27:10.301Z,70.92
2022-11-07T04:28:15.895Z,70.70
2022-11-07T04:29:19.135Z,70.60
2022-11-07T04:30:24.394Z,70.67
2022-11-07T04:31:26.365Z,71.84
2022-11-07T04:32:29.167Z,71.50
2022-11-07T04:33:30.988Z,70.91
2022-11-07T04:34:33.955Z,71.47
2022-11-07T04:35:35.752Z,71.05
2022-11-07T04:36:38.538Z,70.46
2022-11-07T04:37:41.595Z,71.27
2022-11-07T04:38:44.371Z,70.47
2022-11-07T04:39:46.271Z,70.87
2022-11-07T04:40:54.351Z,70.71
2022-11-07T04:41:56.460Z,71.24
2022-11-07T04:42:59.310Z,70.35
2022-11-07T04:44:01.227Z,71.22
2022-11-07T04:45:06.813Z,70.96
2022-11-07T04:46:08.771Z,70.48
2022-11-07T04:47:11.642Z,71.10
2022-11-07T04:48:13.448Z,70.34
2022-11-07T04:49:16.217Z,70.43
2022-11-07T04:50:19.924Z,71.15
2022-11-07T04:51:24.449Z,70.54
2022-11-07T04:52:26.279Z,71.21
2022-11-07T04:53:29.092Z,70.80
2022-11-07T04:54:30.851Z,71.54
2022-11-07T04:55:33.628Z,71.37
2022-11-07T04:56:35.410Z,71.17
2022-11-07T04:57:38.248Z,70.50
2022-11-07T04:58:41.228Z,71.17
2022-11-07T04:59:43.097Z,70.44
2022-11-07T05:00:47.196Z,70.89
2022-11-07T05:01:49.053Z,70.32
2022-11-07T05:02:52.281Z,71.44
2022-11-07T05:03:54.403Z,70.99
2022-11-07T05:04:57.340Z,71.15
2022-11-07T05:05:59.377Z,70.76
2022-11-07T05:07:02.292Z,71.56
2022-11-07T05:08:04.342Z,71.32
2022-11-07T05:09:08.727Z,71.68
2022-11-07T05:10:17.808Z,71.52
2022-11-07T05:11:20.595Z,70.63
2022-11-07T05:12:22.369Z,70.81
2022-11-07T05:13:25.438Z,70.49
2022-11-07T05:14:27.257Z,70.95
2022-11-07T05:15:30.138Z,70.88
2022-11-07T05:16:34.801Z,70.66
2022-11-07T05:17:37.658Z,71.19
2022-11-07T05:18:39.499Z,71.13
2022-11-07T05:19:43.175Z,71.58
2022-11-07T05:20:44.976Z,71.11
2022-11-07T05:22:08.566Z,71.42
2022-11-07T05:23:15.333Z,71.64
2022-11-07T05:24:17.830Z,70.76
2022-11-07T05:25:20.627Z,70.61
2022-11-07T05:26:23.479Z,71.47
2022-11-07T05:27:25.732Z,71.37
2022-11-07T05:28:38.162Z,71.48
2022-11-07T05:29:40.778Z,70.80
2022-11-07T05:30:45.324Z,71.04
2022-11-07T05:31:48.664Z,71.57
2022-11-07T05:32:51.517Z,70.98
2022-11-07T05:33:54.735Z,71.69
2022-11-07T05:34:56.543Z,70.85
2022-11-07T05:36:09.906Z,71.46
2022-11-07T05:37:13.217Z,70.72
2022-11-07T05:38:16.152Z,71.40
2022-11-07T05:39:18.300Z,71.54
2022-11-07T05:40:21.113Z,71.16
2022-11-07T05:41:23.888Z,71.28
2022-11-07T05:42:25.668Z,71.40
2022-11-07T05:43:28.605Z,71.02
2022-11-07T05:44:30.933Z,70.65
2022-11-07T05:45:37.688Z,71.29
2022-11-07T05:46:39.443Z,71.14
2022-11-07T05:47:43.689Z,70.76
2022-11-07T05:48:46.500Z,70.97
2022-11-07T05:49:48.262Z,70.70
2022-11-07T05:50:51.051Z,70.94
2022-11-07T05:51:53.311Z,71.89
2022-11-07T05:52:56.550Z,71.00
2022-11-07T05:53:59.451Z,71.37
2022-11-07T05:55:01.316Z,70.92
2022-11-07T05:56:04.473Z,71.66
2022-11-07T05:57:06.291Z,70.99
2022-11-07T05:58:10.423Z,71.41
2022-11-07T05:59:12.669Z,71.08
2022-11-07T06:00:16.701Z,71.36
2022-11-07T06:01:18.671Z,71.56
2022-11-07T06:02:21.527Z,70.90
2022-11-07T06:03:24.876Z,70.87
2022-11-07T06:04:27.725Z,71.20
2022-11-07T06:05:29.815Z,71.52
2022-11-07T06:06:32.742Z,70.89
2022-11-07T06:07:35.205Z,71.77
2022-11-07T06:08:37.940Z,80.76
2022-11-07T06:09:39.745Z,75.40
2022-11-07T06:10:43.835Z,72.37
2022-11-07T06:11:46.681Z,70.80
2022-11-07T06:12:57.010Z,70.28
2022-11-07T06:14:00.147Z,71.14
2022-11-07T06:15:02.007Z,71.25
2022-11-07T06:16:05.287Z,70.72
2022-11-07T06:17:07.466Z,71.19
2022-11-07T06:18:14.661Z,70.43
2022-11-07T06:19:19.160Z,71.27
2022-11-07T06:20:21.554Z,70.40
2022-11-07T06:21:24.438Z,70.71
2022-11-07T06:22:26.542Z,71.18
2022-11-07T06:23:29.268Z,70.74
2022-11-07T06:24:31.105Z,70.56
2022-11-07T06:25:34.636Z,70.92
2022-11-07T06:26:36.534Z,70.40
2022-11-07T06:27:39.399Z,71.26
2022-11-07T06:28:41.341Z,70.33
2022-11-07T06:29:44.160Z,71.35
2022-11-07T06:30:45.974Z,70.34
2022-11-07T06:31:48.798Z,71.18
2022-11-07T06:32:50.611Z,70.41
2022-11-07T06:33:53.556Z,70.50
2022-11-07T06:34:56.802Z,70.49
2022-11-07T06:36:06.637Z,70.88
2022-11-07T06:37:08.435Z,69.93
2022-11-07T06:38:13.444Z,70.76
2022-11-07T06:39:16.437Z,70.00
2022-11-07T06:40:19.417Z,70.04
2022-11-07T06:41:22.350Z,71.08
2022-11-07T06:42:25.624Z,70.49
2022-11-07T06:43:32.812Z,70.08
2022-11-07T06:44:36.584Z,70.44
2022-11-07T06:45:38.906Z,70.49
2022-11-07T06:46:41.822Z,70.14
2022-11-07T06:47:43.632Z,69.51
2022-11-07T06:48:46.663Z,68.93
2022-11-07T06:49:48.492Z,68.64
2022-11-07T06:50:58.949Z,68.08
2022-11-07T06:52:01.004Z,68.46
2022-11-07T06:53:04.994Z,68.31
2022-11-07T06:54:06.823Z,67.97
2022-11-07T06:55:10.227Z,66.88
2022-11-07T06:56:14.777Z,67.36
2022-11-07T06:57:17.737Z,66.43
2022-11-07T06:58:19.876Z,65.94
2022-11-07T06:59:22.696Z,65.91
2022-11-07T07:00:24.713Z,66.25
2022-11-07T07:01:27.739Z,66.53
2022-11-07T07:02:56.685Z,65.00
2022-11-07T07:03:52.488Z,65.90
2022-11-07T07:04:54.334Z,66.03
2022-11-07T07:06:03.268Z,65.47
2022-11-07T07:07:05.179Z,64.85
2022-11-07T07:08:08.650Z,64.96
2022-11-07T07:09:10.514Z,65.48
2022-11-07T07:10:13.330Z,65.45
2022-11-07T07:11:17.032Z,65.47
2022-11-07T07:12:18.951Z,64.79
2022-11-07T07:13:22.032Z,65.10
2022-11-07T07:14:23.816Z,65.13
2022-11-07T07:15:26.578Z,64.65
2022-11-07T07:16:28.373Z,64.88
2022-11-07T07:17:31.558Z,66.03
2022-11-07T07:18:34.251Z,65.62
2022-11-07T07:19:37.488Z,65.60
2022-11-07T07:20:39.305Z,65.77
2022-11-07T07:21:43.568Z,65.28
2022-11-07T07:22:45.546Z,65.21
2022-11-07T07:23:48.505Z,66.17
2022-11-07T07:24:51.677Z,65.86
2022-11-07T07:25:54.864Z,65.33
2022-11-07T07:26:56.988Z,65.49
2022-11-07T07:27:59.839Z,66.40
2022-11-07T07:29:02.766Z,66.58
2022-11-07T07:30:05.495Z,66.47
2022-11-07T07:31:11.691Z,66.06
2022-11-07T07:32:13.732Z,65.76
2022-11-07T07:33:16.732Z,65.98
2022-11-07T07:34:19.720Z,66.42
2022-11-07T07:35:21.969Z,66.81
2022-11-07T07:36:25.614Z,65.75
2022-11-07T07:37:29.883Z,66.78
2022-11-07T07:38:31.741Z,66.40
2022-11-07T07:39:34.845Z,66.58
2022-11-07T07:40:36.799Z,67.21
2022-11-07T07:41:40.427Z,66.78
2022-11-07T07:42:44.201Z,66.64
2022-11-07T07:43:47.119Z,67.57
2022-11-07T07:44:49.058Z,68.09
2022-11-07T07:45:52.202Z,68.39
2022-11-07T07:46:55.274Z,67.86
2022-11-07T07:48:00.520Z,67.48
2022-11-07T07:49:03.537Z,68.11
2022-11-07T07:50:07.114Z,68.02
2022-11-07T07:51:10.256Z,67.47
2022-11-07T07:52:12.156Z,67.41
2022-11-07T07:53:16.855Z,67.46
2022-11-07T07:54:19.940Z,67.67
2022-11-07T07:55:22.757Z,68.26
2022-11-07T07:56:24.545Z,68.15
2022-11-07T07:57:27.381Z,68.37
2022-11-07T07:58:29.259Z,67.72
2022-11-07T07:59:32.127Z,68.04
2022-11-07T08:00:35.522Z,67.88
2022-11-07T08:01:38.741Z,68.22
2022-11-07T08:02:43.919Z,67.81
2022-11-07T08:04:02.776Z,68.69
2022-11-07T08:05:06.742Z,68.35
2022-11-07T08:06:11.541Z,68.90
2022-11-07T08:07:14.377Z,68.75
2022-11-07T08:08:17.579Z,68.75
2022-11-07T08:09:20.656Z,67.94
2022-11-07T08:11:45.652Z,69.00
2022-11-07T08:12:48.887Z,68.49
2022-11-07T08:13:51.689Z,68.54
2022-11-07T08:14:53.464Z,69.18
2022-11-07T08:15:56.385Z,68.50
2022-11-07T08:16:58.746Z,68.80
2022-11-07T08:18:02.719Z,68.20
2022-11-07T08:19:05.634Z,68.44
2022-11-07T08:20:10.612Z,68.42
2022-11-07T08:21:13.431Z,68.04
2022-11-07T08:22:15.258Z,68.40
2022-11-07T08:23:20.376Z,68.48
2022-11-07T08:24:23.506Z,67.54
2022-11-07T08:25:25.341Z,67.48
2022-11-07T08:26:28.208Z,67.00
2022-11-07T08:27:30.210Z,68.00
2022-11-07T08:28:35.483Z,67.80
2022-11-07T08:29:37.293Z,68.00
2022-11-07T08:30:40.180Z,67.81
2022-11-07T08:31:42.995Z,67.71
2022-11-07T08:32:44.962Z,67.61
2022-11-07T08:33:47.886Z,67.73
2022-11-07T08:34:49.834Z,66.56
2022-11-07T08:35:52.704Z,67.53
2022-11-07T08:36:55.648Z,67.34
2022-11-07T08:37:58.266Z,67.12
2022-11-07T08:39:02.496Z,66.92
2022-11-07T08:40:05.212Z,66.51
2022-11-07T08:41:08.182Z,66.64
2022-11-07T08:42:10.029Z,66.45
2022-11-07T08:43:12.941Z,65.22
2022-11-07T08:44:15.769Z,65.65
2022-11-07T08:45:17.857Z,65.31
2022-11-07T08:46:20.726Z,65.23
2022-11-07T08:47:22.574Z,65.27
2022-11-07T08:48:25.583Z,65.29
2022-11-07T08:49:27.797Z,66.02
2022-11-07T08:50:30.644Z,64.75
2022-11-07T08:51:33.950Z,65.26
2022-11-07T08:52:36.141Z,65.48
2022-11-07T08:53:39.097Z,65.04
2022-11-07T08:54:42.283Z,65.96
2022-11-07T08:55:45.193Z,65.77
2022-11-07T08:56:48.256Z,65.25
2022-11-07T08:57:50.108Z,65.79
2022-11-07T08:58:52.932Z,65.76
2022-11-07T08:59:55.656Z,65.92
2022-11-07T09:01:00.231Z,65.18
2022-11-07T09:02:47.453Z,65.31
2022-11-07T09:04:49.275Z,66.03
2022-11-07T09:05:52.542Z,66.40
2022-11-07T09:06:56.424Z,66.55
2022-11-07T09:07:59.282Z,66.45
2022-11-07T09:09:02.952Z,66.15
2022-11-07T09:10:07.450Z,65.68
2022-11-07T09:11:10.581Z,65.87
2022-11-07T09:12:13.457Z,65.86
2022-11-07T09:13:15.618Z,65.53
2022-11-07T09:14:18.687Z,66.38
2022-11-07T09:15:21.098Z,66.40
2022-11-07T09:16:24.786Z,66.61
2022-11-07T09:17:27.575Z,66.00
2022-11-07T09:18:30.757Z,66.67
2022-11-07T09:19:32.631Z,66.63
2022-11-07T09:20:35.693Z,66.22
2022-11-07T09:21:37.664Z,65.81
2022-11-07T09:22:41.036Z,65.72
2022-11-07T09:23:43.220Z,66.22
2022-11-07T09:24:46.103Z,66.52
2022-11-07T09:25:50.467Z,65.85
2022-11-07T09:26:52.358Z,65.76
2022-11-07T09:27:56.021Z,65.59
2022-11-07T09:29:01.302Z,66.73
2022-11-07T09:30:03.755Z,65.93
2022-11-07T09:31:07.490Z,66.13
2022-11-07T09:32:30.815Z,65.55
2022-11-07T09:33:33.592Z,65.52
2022-11-07T09:34:36.360Z,65.69
2022-11-07T09:35:39.351Z,64.95
2022-11-07T09:36:42.179Z,65.34
2022-11-07T09:37:44.109Z,65.75
2022-11-07T09:38:46.957Z,65.17
2022-11-07T09:39:49.073Z,66.05
2022-11-07T09:41:04.174Z,66.73
2022-11-07T09:42:17.722Z,66.49
2022-11-07T09:43:44.960Z,66.45
2022-11-07T09:44:55.835Z,66.41
2022-11-07T09:46:03.784Z,65.77
2022-11-07T09:47:17.210Z,66.16
2022-11-07T09:48:25.321Z,66.54
2022-11-07T09:49:34.966Z,67.05
2022-11-07T09:50:39.310Z,67.48
2022-11-07T09:51:46.626Z,66.83
2022-11-07T09:52:53.558Z,66.38
2022-11-07T09:54:00.512Z,66.74
2022-11-07T09:55:08.783Z,65.97
2022-11-07T09:56:15.525Z,66.53
2022-11-07T09:57:20.417Z,66.03
2022-11-07T09:58:27.598Z,66.57
2022-11-07T09:59:37.593Z,65.84
2022-11-07T10:00:41.687Z,66.70
2022-11-07T10:01:43.752Z,66.07
2022-11-07T10:02:49.748Z,66.02
2022-11-07T10:04:23.670Z,66.08
2022-11-07T10:05:18.117Z,66.44
2022-11-07T10:06:25.927Z,65.29
2022-11-07T10:07:37.528Z,65.13
2022-11-07T10:08:47.534Z,66.44
2022-11-07T10:09:57.498Z,65.90
2022-11-07T10:11:02.029Z,65.15
2022-11-07T10:12:18.701Z,66.11
2022-11-07T10:13:47.322Z,66.07
2022-11-07T10:15:00.833Z,65.75
2022-11-07T10:16:10.718Z,65.27
2022-11-07T10:17:23.926Z,66.10
2022-11-07T10:18:38.247Z,66.21
2022-11-07T10:19:51.352Z,65.54
2022-11-07T10:21:35.851Z,66.07
2022-11-07T10:22:41.235Z,65.42
2022-11-07T10:23:54.624Z,65.37
2022-11-07T10:25:14.709Z,64.95
2022-11-07T10:26:21.345Z,65.17
2022-11-07T10:27:24.566Z,65.43
2022-11-07T10:28:27.879Z,64.90
2022-11-07T10:29:46.965Z,64.87
2022-11-07T10:30:52.345Z,64.49
2022-11-07T10:31:58.592Z,65.53
2022-11-07T10:33:07.601Z,65.40
2022-11-07T10:34:19.046Z,65.16
2022-11-07T10:35:27.162Z,65.82
2022-11-07T10:36:32.115Z,65.41
2022-11-07T10:37:34.031Z,66.04
2022-11-07T10:38:41.895Z,65.85
2022-11-07T10:39:44.741Z,65.81
2022-11-07T10:40:50.292Z,65.77
2022-11-07T10:42:00.900Z,66.29
2022-11-07T10:43:10.297Z,64.80
2022-11-07T10:44:23.899Z,65.21
2022-11-07T10:45:28.799Z,66.09
2022-11-07T10:46:39.976Z,65.69
2022-11-07T10:47:42.356Z,65.44
2022-11-07T10:48:56.390Z,66.61
2022-11-07T10:50:01.738Z,65.26
2022-11-07T10:51:04.736Z,65.34
2022-11-07T10:52:10.158Z,64.51
2022-11-07T10:53:19.893Z,64.29
2022-11-07T10:54:29.095Z,65.22
2022-11-07T10:55:42.822Z,64.58
2022-11-07T10:56:47.414Z,64.55
2022-11-07T10:57:54.628Z,64.79
2022-11-07T10:58:58.148Z,64.38
2022-11-07T11:00:00.965Z,65.02
2022-11-07T11:01:06.074Z,64.12
2022-11-07T11:02:21.225Z,64.59
2022-11-07T11:03:42.175Z,65.24
2022-11-07T11:04:51.071Z,65.69
2022-11-07T11:05:54.722Z,65.73
2022-11-07T11:06:58.397Z,65.34
2022-11-07T11:08:14.373Z,65.63
2022-11-07T11:09:19.973Z,66.17
2022-11-07T11:10:24.693Z,65.86
2022-11-07T11:11:31.407Z,65.15
2022-11-07T11:12:37.591Z,65.63
2022-11-07T11:13:39.471Z,65.14
2022-11-07T11:14:43.784Z,64.71
2022-11-07T11:15:45.845Z,63.94
2022-11-07T11:16:54.627Z,64.97
2022-11-07T11:18:00.661Z,64.58
2022-11-07T11:19:05.056Z,65.13
2022-11-07T11:20:32.130Z,65.01
2022-11-07T11:21:43.379Z,64.94
2022-11-07T11:22:45.455Z,65.21
2022-11-07T11:23:49.365Z,64.78
2022-11-07T11:24:59.345Z,65.11
2022-11-07T11:26:07.456Z,65.47
2022-11-07T11:27:17.406Z,65.68
2022-11-07T11:28:25.550Z,64.74
2022-11-07T11:29:39.357Z,64.13
2022-11-07T11:30:48.286Z,64.21
2022-11-07T11:31:53.054Z,64.78
2022-11-07T11:33:04.284Z,64.96
2022-11-07T11:34:15.915Z,65.62
2022-11-07T11:35:38.887Z,65.91
2022-11-07T11:36:52.331Z,65.21
2022-11-07T11:37:59.079Z,65.47
2022-11-07T11:39:04.978Z,66.40
2022-11-07T11:40:12.683Z,66.63
2022-11-07T11:41:22.389Z,66.67
2022-11-07T11:42:32.230Z,66.78
2022-11-07T11:43:44.251Z,66.46
2022-11-07T11:44:46.596Z,66.82
2022-11-07T11:46:05.289Z,65.80
2022-11-07T11:47:16.203Z,66.10
2022-11-07T11:48:25.404Z,65.59
2022-11-07T11:49:36.625Z,65.77
2022-11-07T11:50:44.281Z,66.52
2022-11-07T11:51:51.526Z,65.48
2022-11-07T11:52:57.071Z,65.08
2022-11-07T11:53:58.911Z,65.26
2022-11-07T11:55:02.170Z,65.15
2022-11-07T11:56:24.788Z,65.34
2022-11-07T11:57:34.236Z,64.20
2022-11-07T11:58:47.826Z,64.69
2022-11-07T12:00:12.147Z,65.07
2022-11-07T12:02:46.703Z,65.02
2022-11-07T12:04:02.541Z,64.83
2022-11-07T12:05:22.393Z,65.49
2022-11-07T12:06:34.642Z,64.92
2022-11-07T12:07:51.747Z,64.03
2022-11-07T12:09:17.024Z,64.38
2022-11-07T12:10:27.560Z,65.02
2022-11-07T12:11:39.272Z,64.35
2022-11-07T12:12:55.460Z,64.19
2022-11-07T12:14:05.948Z,64.34
2022-11-07T12:15:28.567Z,64.53
2022-11-07T12:16:40.421Z,64.06
2022-11-07T12:17:49.435Z,63.79
2022-11-07T12:19:04.135Z,64.53
2022-11-07T12:20:18.096Z,63.38
2022-11-07T12:21:30.879Z,64.71
2022-11-07T12:22:48.257Z,64.63
2022-11-07T12:24:01.291Z,63.55
2022-11-07T12:25:10.600Z,64.25
2022-11-07T12:26:20.622Z,64.24
2022-11-07T12:27:34.307Z,62.71
2022-11-07T12:28:50.787Z,64.16
2022-11-07T12:30:07.626Z,63.01
2022-11-07T12:31:26.982Z,63.79
2022-11-07T12:32:40.971Z,63.84
2022-11-07T12:33:50.158Z,63.79
2022-11-07T12:35:08.272Z,63.79
2022-11-07T12:36:17.958Z,63.28
2022-11-07T12:37:36.069Z,62.51
2022-11-07T12:39:00.786Z,62.60
2022-11-07T12:40:15.157Z,62.34
2022-11-07T12:41:26.484Z,61.93
2022-11-07T12:42:43.609Z,61.73
2022-11-07T12:43:59.463Z,62.43
2022-11-07T12:45:11.324Z,62.60
2022-11-07T12:46:22.168Z,62.04
2022-11-07T12:47:47.768Z,62.18
2022-11-07T12:49:13.413Z,62.66
2022-11-07T12:50:28.303Z,62.75
2022-11-07T12:51:45.233Z,62.72
2022-11-07T12:53:02.089Z,62.83
2022-11-07T12:54:21.402Z,63.07
2022-11-07T12:55:29.133Z,63.78
2022-11-07T12:56:36.310Z,64.09
2022-11-07T12:57:41.354Z,63.55
2022-11-07T12:58:46.468Z,63.70
2022-11-07T12:59:55.835Z,63.06
2022-11-07T13:01:00.005Z,63.53
2022-11-07T13:02:08.249Z,63.45
2022-11-07T13:03:42.154Z,63.86
2022-11-07T13:04:51.121Z,64.58
2022-11-07T13:06:08.372Z,64.09
2022-11-07T13:07:20.819Z,63.38
2022-11-07T13:08:34.752Z,63.61
2022-11-07T13:09:47.970Z,63.33
2022-11-07T13:10:58.706Z,63.55
2022-11-07T13:12:09.887Z,64.49
2022-11-07T13:13:20.070Z,64.09
2022-11-07T13:14:31.539Z,63.45
2022-11-07T13:16:00.755Z,63.05
2022-11-07T13:17:24.967Z,63.09
2022-11-07T13:18:29.315Z,63.04
2022-11-07T13:19:33.790Z,63.87
2022-11-07T13:20:35.645Z,63.20
2022-11-07T13:21:42.990Z,64.31
2022-11-07T13:22:46.006Z,63.49
2022-11-07T13:23:49.394Z,63.04
2022-11-07T13:24:54.356Z,62.86
2022-11-07T13:26:04.193Z,63.48
2022-11-07T13:27:24.717Z,62.71
2022-11-07T13:28:38.189Z,62.82
2022-11-07T13:29:41.194Z,63.35
2022-11-07T13:30:55.299Z,62.86
2022-11-07T13:32:09.493Z,63.06
2022-11-07T13:33:26.878Z,62.87
2022-11-07T13:34:39.898Z,63.29
2022-11-07T13:35:55.112Z,62.98
2022-11-07T13:37:02.820Z,62.58
2022-11-07T13:38:12.723Z,63.54
2022-11-07T13:39:16.631Z,62.58
2022-11-07T13:40:26.059Z,62.89
2022-11-07T13:41:31.309Z,64.04
2022-11-07T13:42:35.723Z,63.35
2022-11-07T13:43:41.821Z,63.36
2022-11-07T13:44:53.146Z,63.25
2022-11-07T13:45:58.172Z,63.59
2022-11-07T13:47:05.280Z,63.32
2022-11-07T13:48:16.826Z,63.66
2022-11-07T13:49:23.677Z,63.66
2022-11-07T13:50:38.611Z,63.31
2022-11-07T13:51:43.357Z,63.19
2022-11-07T13:52:53.609Z,63.82
2022-11-07T13:54:06.205Z,63.31
2022-11-07T13:55:14.991Z,64.08
2022-11-07T13:56:33.617Z,63.74
2022-11-07T13:57:40.231Z,63.17
2022-11-07T13:58:44.537Z,63.21
2022-11-07T13:59:53.068Z,64.09
2022-11-07T14:00:56.129Z,63.90
2022-11-07T14:01:58.364Z,63.93
2022-11-07T14:03:02.382Z,64.07
2022-11-07T14:04:12.781Z,64.37
2022-11-07T14:05:17.307Z,64.25
2022-11-07T14:06:22.290Z,63.61
2022-11-07T14:07:26.322Z,63.51
2022-11-07T14:08:32.568Z,63.87
2022-11-07T14:09:35.874Z,64.86
2022-11-07T14:10:42.805Z,63.85
2022-11-07T14:11:45.973Z,63.93